createdAt,value
2023-04-05T00:00:37.873Z,99633.16
2023-04-05T00:03:13.258Z,99624.38
2023-04-05T00:05:44.567Z,99619.25
2023-04-05T00:08:23.854Z,99625.13
2023-04-05T00:10:55.162Z,99626.02
2023-04-05T00:13:23.930Z,99630.60
2023-04-05T00:15:59.882Z,99614.34
2023-04-05T00:18:36.170Z,99606.65
2023-04-05T00:21:06.185Z,99615.67
2023-04-05T00:23:39.921Z,99622.08
2023-04-05T00:26:11.861Z,99612.46
2023-04-05T00:28:43.115Z,99610.17
2023-04-05T00:31:13.799Z,99604.52
2023-04-05T00:33:43.121Z,99603.59
2023-04-05T00:36:13.250Z,99599.11
2023-04-05T00:38:44.664Z,99597.05
2023-04-05T00:41:16.535Z,99593.36
2023-04-05T00:43:47.172Z,99593.19
2023-04-05T00:46:18.415Z,99591.29
2023-04-05T00:48:48.993Z,99594.95
2023-04-05T00:51:17.519Z,99596.36
2023-04-05T00:53:48.574Z,99591.00
2023-04-05T00:56:17.324Z,99584.98
2023-04-05T00:58:52.431Z,99578.15
2023-04-05T01:01:22.962Z,99578.91
2023-04-05T01:04:00.165Z,99581.75
2023-04-05T01:06:42.277Z,99573.47
2023-04-05T01:09:26.144Z,99566.56
2023-04-05T01:11:56.217Z,99563.98
2023-04-05T01:14:26.952Z,99567.02
2023-04-05T01:16:58.857Z,99564.65
2023-04-05T01:19:38.344Z,99566.92
2023-04-05T01:22:46.533Z,99567.66
2023-04-05T01:25:57.421Z,99566.77
2023-04-05T01:29:05.035Z,99564.04
2023-04-05T01:31:51.137Z,99561.83
2023-04-05T01:34:45.857Z,99559.52
2023-04-05T01:37:16.009Z,99560.48
2023-04-05T01:39:51.902Z,99560.73
2023-04-05T01:42:27.924Z,99561.77
2023-04-05T01:45:00.125Z,99548.65
2023-04-05T01:47:35.394Z,99545.42
2023-04-05T01:50:03.901Z,99548.22
2023-04-05T01:52:37.033Z,99542.55
2023-04-05T01:55:10.207Z,99546.26
2023-04-05T01:57:40.073Z,99542.30
2023-04-05T02:00:13.401Z,99535.05
2023-04-05T02:02:42.477Z,99531.72
2023-04-05T02:05:10.784Z,99528.09
2023-04-05T02:07:40.382Z,99527.85
2023-04-05T02:10:09.138Z,99520.65
2023-04-05T02:12:37.653Z,99514.13
2023-04-05T02:15:07.890Z,99510.61
2023-04-05T02:17:40.195Z,99509.29
2023-04-05T02:20:09.184Z,99508.94
2023-04-05T02:22:42.489Z,99502.10
2023-04-05T02:25:10.725Z,99504.14
2023-04-05T02:27:44.483Z,99506.17
2023-04-05T02:30:14.273Z,99505.14
2023-04-05T02:32:47.325Z,99502.00
2023-04-05T02:35:18.499Z,99503.61
2023-04-05T02:37:48.867Z,99508.61
2023-04-05T02:40:17.169Z,99506.95
2023-04-05T02:42:45.217Z,99503.64
2023-04-05T02:45:14.477Z,99500.98
2023-04-05T02:47:43.801Z,99504.69
2023-04-05T02:50:12.708Z,99509.74
2023-04-05T02:52:48.463Z,99511.96
2023-04-05T02:55:16.707Z,99504.70
2023-04-05T02:57:46.870Z,99500.88
2023-04-05T03:00:32.648Z,99503.48
2023-04-05T03:03:01.771Z,99504.77
2023-04-05T03:05:30.410Z,99505.11
2023-04-05T03:08:02.316Z,99508.30
2023-04-05T03:10:36.362Z,99507.81
2023-04-05T03:13:14.604Z,99498.23
2023-04-05T03:15:44.403Z,99497.20
2023-04-05T03:18:14.729Z,99498.81
2023-04-05T03:20:50.441Z,99503.35
2023-04-05T03:23:21.934Z,99509.34
2023-04-05T03:25:57.204Z,99506.98
2023-04-05T03:28:25.828Z,99512.66
2023-04-05T03:30:54.956Z,99515.70
2023-04-05T03:33:23.471Z,99512.38
2023-04-05T03:35:53.996Z,99506.69
2023-04-05T03:38:24.163Z,99500.13
2023-04-05T03:41:06.801Z,99493.45
2023-04-05T03:43:37.025Z,99496.45
2023-04-05T03:46:05.016Z,99501.43
2023-04-05T03:48:34.739Z,99498.69
2023-04-05T03:51:03.776Z,99495.15
2023-04-05T03:53:33.048Z,99497.69
2023-04-05T03:56:01.799Z,99503.39
2023-04-05T03:58:41.782Z,99507.45
2023-04-05T04:01:10.847Z,99505.23
2023-04-05T04:03:40.417Z,99500.70
2023-04-05T04:06:08.930Z,99501.43
2023-04-05T04:08:39.522Z,99500.98
2023-04-05T04:11:08.456Z,99501.90
2023-04-05T04:13:40.514Z,99505.52
2023-04-05T04:16:20.813Z,99498.42
2023-04-05T04:19:21.771Z,99492.92
2023-04-05T04:22:10.386Z,99488.99
2023-04-05T04:25:19.042Z,99486.80
2023-04-05T04:28:00.471Z,99482.86
2023-04-05T04:30:47.541Z,99482.95
2023-04-05T04:33:35.885Z,99485.33
2023-04-05T04:36:36.344Z,99488.00
2023-04-05T04:39:39.825Z,99490.33
2023-04-05T04:42:33.954Z,99485.53
2023-04-05T04:45:29.160Z,99481.45
2023-04-05T04:48:26.749Z,99482.25
2023-04-05T04:51:12.799Z,99482.84
2023-04-05T04:53:41.228Z,99487.23
2023-04-05T04:56:10.403Z,99490.71
2023-04-05T04:58:38.411Z,99493.16
2023-04-05T05:01:10.197Z,99498.14
2023-04-05T05:03:40.168Z,99499.75
2023-04-05T05:07:13.087Z,99493.05
2023-04-05T05:09:41.192Z,99493.63
2023-04-05T05:12:13.360Z,99498.52
2023-04-05T05:14:42.220Z,99495.59
2023-04-05T05:17:10.431Z,99494.52
2023-04-05T05:19:39.234Z,99498.04
2023-04-05T05:22:07.637Z,99498.15
2023-04-05T05:24:40.334Z,99494.67
2023-04-05T05:27:08.318Z,99488.82
2023-04-05T05:29:39.682Z,99486.90
2023-04-05T05:32:09.466Z,99484.10
2023-04-05T05:34:39.892Z,99477.19
2023-04-05T05:37:09.585Z,99475.36
2023-04-05T05:39:38.069Z,99470.48
2023-04-05T05:42:06.800Z,99466.66
2023-04-05T05:44:36.005Z,99470.64
2023-04-05T05:47:05.422Z,99472.52
2023-04-05T05:49:33.462Z,99472.84
2023-04-05T05:52:04.038Z,99477.05
2023-04-05T05:54:33.102Z,99474.95
2023-04-05T05:57:02.551Z,99471.39
2023-04-05T05:59:31.126Z,99468.02
2023-04-05T06:01:59.316Z,99468.48
2023-04-05T06:04:29.087Z,99467.52
2023-04-05T06:06:57.971Z,99473.36
2023-04-05T06:09:30.986Z,99469.58
2023-04-05T06:11:59.793Z,99467.85
2023-04-05T06:14:29.927Z,99472.71
2023-04-05T06:17:06.187Z,99470.64
2023-04-05T06:19:35.273Z,99472.20
2023-04-05T06:22:03.312Z,99476.74
2023-04-05T06:24:33.042Z,99476.30
2023-04-05T06:27:02.322Z,99480.65
2023-04-05T06:29:32.823Z,99485.98
2023-04-05T06:32:01.943Z,99486.84
2023-04-05T06:34:30.748Z,99486.17
2023-04-05T06:37:00.557Z,99489.19
2023-04-05T06:39:28.938Z,99483.96
2023-04-05T06:41:57.931Z,99483.63
2023-04-05T06:44:27.620Z,99488.19
2023-04-05T06:46:55.896Z,99487.38
2023-04-05T06:49:23.900Z,99486.65
2023-04-05T06:51:52.311Z,99487.75
2023-04-05T06:54:25.052Z,99489.66
2023-04-05T06:56:53.362Z,99488.33
2023-04-05T06:59:21.520Z,99488.11
2023-04-05T07:01:50.633Z,99490.58
2023-04-05T07:04:19.039Z,99483.23
2023-04-05T07:06:47.253Z,99488.48
2023-04-05T07:09:18.534Z,99489.82
2023-04-05T07:11:47.907Z,99489.64
2023-04-05T07:14:16.310Z,99484.86
2023-04-05T07:16:52.565Z,99483.75
2023-04-05T07:19:21.213Z,99480.40
2023-04-05T07:21:49.446Z,99468.21
2023-04-05T07:24:17.651Z,99470.91
2023-04-05T07:26:46.445Z,99463.88
2023-04-05T07:29:18.991Z,99461.83
2023-04-05T07:31:48.568Z,99457.73
2023-04-05T07:34:17.185Z,99456.20
2023-04-05T07:36:47.293Z,99456.65
2023-04-05T07:39:17.545Z,99454.86
2023-04-05T07:41:47.804Z,99457.91
2023-04-05T07:44:17.614Z,99460.61
2023-04-05T07:46:49.057Z,99460.57
2023-04-05T07:49:18.272Z,99455.75
2023-04-05T07:51:48.245Z,99456.10
2023-04-05T07:54:16.533Z,99453.73
2023-04-05T07:56:51.952Z,99452.77
2023-04-05T07:59:20.975Z,99455.95
2023-04-05T08:01:49.161Z,99452.40
2023-04-05T08:04:17.156Z,99454.15
2023-04-05T08:06:48.633Z,99457.64
2023-04-05T08:09:17.362Z,99452.84
2023-04-05T08:11:45.471Z,99449.10
2023-04-05T08:14:14.366Z,99450.11
2023-04-05T08:16:43.708Z,99457.86
2023-04-05T08:19:15.575Z,99457.46
2023-04-05T08:21:43.999Z,99462.61
2023-04-05T08:24:12.115Z,99466.17
2023-04-05T08:26:41.954Z,99472.94
2023-04-05T08:29:12.292Z,99468.10
2023-04-05T08:31:44.469Z,99467.20
2023-04-05T08:34:12.995Z,99468.02
2023-04-05T08:36:43.121Z,99464.56
2023-04-05T08:39:11.978Z,99468.19
2023-04-05T08:41:41.952Z,99459.55
2023-04-05T08:44:10.877Z,99462.66
2023-04-05T08:46:39.544Z,99462.31
2023-04-05T08:49:08.684Z,99461.01
2023-04-05T08:51:39.378Z,99463.39
2023-04-05T08:54:09.918Z,99458.80
2023-04-05T08:56:38.051Z,99458.95
2023-04-05T08:59:13.475Z,99462.68
2023-04-05T09:01:44.230Z,99459.91
2023-04-05T09:04:21.496Z,99455.20
2023-04-05T09:06:51.221Z,99462.24
2023-04-05T09:09:21.848Z,99456.69
2023-04-05T09:12:18.880Z,99453.81
2023-04-05T09:14:55.615Z,99451.13
2023-04-05T09:17:31.881Z,99453.89
2023-04-05T09:20:17.022Z,99451.52
2023-04-05T09:22:47.242Z,99450.57
2023-04-05T09:25:41.560Z,99443.02
2023-04-05T09:28:12.897Z,99440.23
2023-04-05T09:30:48.747Z,99445.23
2023-04-05T09:33:20.262Z,99445.89
2023-04-05T09:35:51.164Z,99448.76
2023-04-05T09:38:26.972Z,99446.48
2023-04-05T09:40:57.929Z,99436.91
2023-04-05T09:43:42.197Z,99447.02
2023-04-05T09:46:38.534Z,99448.85
2023-04-05T09:49:10.780Z,99447.71
2023-04-05T09:51:47.938Z,99445.55
2023-04-05T09:54:18.786Z,99448.88
2023-04-05T09:57:26.832Z,99446.55
2023-04-05T09:59:58.253Z,99443.14
2023-04-05T10:02:49.443Z,99437.56
2023-04-05T10:05:28.764Z,99437.69
2023-04-05T10:08:08.930Z,99430.58
2023-04-05T10:10:47.530Z,99433.83
2023-04-05T10:13:22.847Z,99433.71
2023-04-05T10:16:09.363Z,99432.46
2023-04-05T10:18:58.338Z,99429.34
2023-04-05T10:21:34.486Z,99429.45
2023-04-05T10:24:19.349Z,99428.28
2023-04-05T10:27:17.670Z,99429.42
2023-04-05T10:30:09.427Z,99434.83
2023-04-05T10:32:42.804Z,99433.20
2023-04-05T10:35:17.267Z,99429.94
2023-04-05T10:38:17.410Z,99434.77
2023-04-05T10:40:48.527Z,99430.77
2023-04-05T10:43:23.544Z,99432.27
2023-04-05T10:45:53.688Z,99432.30
2023-04-05T10:48:50.688Z,99432.14
2023-04-05T10:51:21.212Z,99433.42
2023-04-05T10:53:50.512Z,99431.63
2023-04-05T10:56:20.415Z,99429.77
2023-04-05T10:58:49.867Z,99433.30
2023-04-05T11:01:19.291Z,99438.14
2023-04-05T11:03:50.831Z,99440.51
2023-04-05T11:06:33.677Z,99440.67
2023-04-05T11:09:20.422Z,99437.94
2023-04-05T11:11:51.728Z,99440.90
2023-04-05T11:14:36.236Z,99444.71
2023-04-05T11:17:28.400Z,99434.94
2023-04-05T11:20:05.670Z,99436.82
2023-04-05T11:22:35.276Z,99436.60
2023-04-05T11:25:06.665Z,99439.63
2023-04-05T11:27:42.138Z,99441.06
2023-04-05T11:30:15.887Z,99439.33
2023-04-05T11:32:45.875Z,99436.08
2023-04-05T11:35:15.869Z,99437.52
2023-04-05T11:38:02.894Z,99434.08
2023-04-05T11:40:33.955Z,99434.77
2023-04-05T11:43:04.178Z,99436.52
2023-04-05T11:45:33.313Z,99437.66
2023-04-05T11:48:09.704Z,99436.69
2023-04-05T11:50:39.441Z,99434.44
2023-04-05T11:53:10.380Z,99437.75
2023-04-05T11:55:41.104Z,99434.55
2023-04-05T11:58:13.859Z,99433.81
2023-04-05T12:00:43.104Z,99434.94
2023-04-05T12:03:25.157Z,99431.66
2023-04-05T12:05:55.051Z,99434.38
2023-04-05T12:08:24.325Z,99429.21
2023-04-05T12:11:02.821Z,99429.42
2023-04-05T12:13:37.856Z,99429.10
2023-04-05T12:16:08.497Z,99428.02
2023-04-05T12:18:38.257Z,99423.46
2023-04-05T12:21:11.429Z,99413.36
2023-04-05T12:23:39.878Z,99414.08
2023-04-05T12:26:09.822Z,99409.78
2023-04-05T12:28:56.576Z,99403.48
2023-04-05T12:31:44.870Z,99400.38
2023-04-05T12:34:14.443Z,99398.87
2023-04-05T12:36:45.819Z,99396.98
2023-04-05T12:39:16.868Z,99396.91
2023-04-05T12:41:45.456Z,99393.98
2023-04-05T12:44:16.526Z,99389.25
2023-04-05T12:46:46.882Z,99391.06
2023-04-05T12:49:18.765Z,99391.44
2023-04-05T12:51:48.568Z,99386.21
2023-04-05T12:54:23.787Z,99388.11
2023-04-05T12:56:54.918Z,99390.78
2023-04-05T12:59:24.234Z,99385.82
2023-04-05T13:01:53.382Z,99387.35
2023-04-05T13:04:30.392Z,99380.49
2023-04-05T13:06:59.732Z,99371.84
2023-04-05T13:09:29.965Z,99369.52
2023-04-05T13:11:58.781Z,99371.94
2023-04-05T13:14:28.493Z,99369.02
2023-04-05T13:16:57.533Z,99371.62
2023-04-05T13:19:26.414Z,99376.95
2023-04-05T13:21:55.399Z,99379.38
2023-04-05T13:24:24.372Z,99382.52
2023-04-05T13:26:52.931Z,99382.88
2023-04-05T13:29:21.867Z,99379.62
2023-04-05T13:31:51.470Z,99372.40
2023-04-05T13:34:20.741Z,99372.01
2023-04-05T13:36:49.892Z,99372.73
2023-04-05T13:39:21.927Z,99372.78
2023-04-05T13:41:50.334Z,99363.63
2023-04-05T13:44:19.483Z,99368.66
2023-04-05T13:46:49.147Z,99365.95
2023-04-05T13:49:17.953Z,99361.27
2023-04-05T13:51:48.577Z,99356.77
2023-04-05T13:54:17.503Z,99359.44
2023-04-05T13:56:49.160Z,99363.36
2023-04-05T13:59:19.718Z,99368.67
2023-04-05T14:01:48.344Z,99363.48
2023-04-05T14:04:16.483Z,99367.27
2023-04-05T14:06:45.319Z,99369.52
2023-04-05T14:09:13.883Z,99364.78
2023-04-05T14:11:47.380Z,99367.00
2023-04-05T14:14:16.721Z,99361.13
2023-04-05T14:16:47.465Z,99361.23
2023-04-05T14:19:18.614Z,99358.09
2023-04-05T14:21:47.481Z,99355.14
2023-04-05T14:24:21.489Z,99356.67
2023-04-05T14:26:50.507Z,99359.35
2023-04-05T14:29:18.848Z,99354.23
2023-04-05T14:31:47.266Z,99354.48
2023-04-05T14:34:16.437Z,99351.15
2023-04-05T14:36:44.986Z,99352.88
2023-04-05T14:39:13.464Z,99350.63
2023-04-05T14:41:41.676Z,99351.00
2023-04-05T14:44:10.140Z,99348.58
2023-04-05T14:46:38.701Z,99343.69
2023-04-05T14:49:06.993Z,99334.66
2023-04-05T14:51:36.894Z,99343.51
2023-04-05T14:54:06.608Z,99344.00
2023-04-05T14:56:38.398Z,99343.23
2023-04-05T14:59:06.591Z,99341.51
2023-04-05T15:01:35.090Z,99342.61
2023-04-05T15:04:03.906Z,99342.40
2023-04-05T15:06:32.507Z,99347.39
2023-04-05T15:09:01.165Z,99352.52
2023-04-05T15:11:30.315Z,99353.33
2023-04-05T15:13:58.930Z,99355.02
2023-04-05T15:16:27.601Z,99363.20
2023-04-05T15:18:59.654Z,99365.60
2023-04-05T15:21:27.987Z,99370.44
2023-04-05T15:23:56.180Z,99364.95
2023-04-05T15:26:24.591Z,99361.51
2023-04-05T15:28:52.689Z,99359.39
2023-04-05T15:31:20.828Z,99354.05
2023-04-05T15:33:49.193Z,99351.54
2023-04-05T15:36:17.550Z,99342.55
2023-04-05T15:38:46.225Z,99353.98
2023-04-05T15:41:14.398Z,99360.79
2023-04-05T15:43:47.048Z,99354.77
2023-04-05T15:46:15.786Z,99355.32
2023-04-05T15:48:44.201Z,99358.63
2023-04-05T15:51:12.598Z,99358.41
2023-04-05T15:53:40.688Z,99352.20
2023-04-05T15:56:09.354Z,99351.45
2023-04-05T15:58:37.642Z,99347.95
2023-04-05T16:01:06.445Z,99355.57
2023-04-05T16:03:36.166Z,99354.36
2023-04-05T16:06:04.294Z,99356.63
2023-04-05T16:08:33.467Z,99359.77
2023-04-05T16:11:01.629Z,99363.48
2023-04-05T16:13:34.299Z,99359.52
2023-04-05T16:16:02.752Z,99355.73
2023-04-05T16:18:32.660Z,99358.98
2023-04-05T16:21:08.731Z,99356.05
2023-04-05T16:23:38.367Z,99352.77
2023-04-05T16:26:06.528Z,99350.86
2023-04-05T16:28:35.164Z,99356.64
2023-04-05T16:31:03.683Z,99353.07
2023-04-05T16:33:33.141Z,99349.04
2023-04-05T16:36:02.088Z,99351.13
2023-04-05T16:38:30.253Z,99350.62
2023-04-05T16:40:59.012Z,99350.51
2023-04-05T16:43:28.010Z,99353.05
2023-04-05T16:45:56.295Z,99352.22
2023-04-05T16:48:32.703Z,99354.39
2023-04-05T16:51:00.965Z,99349.50
2023-04-05T16:53:30.285Z,99355.95
2023-04-05T16:55:58.459Z,99357.17
2023-04-05T16:58:26.735Z,99356.96
2023-04-05T17:00:58.890Z,99358.77
2023-04-05T17:03:27.910Z,99354.08
2023-04-05T17:05:56.668Z,99354.83
2023-04-05T17:08:25.685Z,99356.86
2023-04-05T17:10:54.015Z,99356.87
2023-04-05T17:13:22.083Z,99358.27
2023-04-05T17:15:50.795Z,99359.95
2023-04-05T17:18:18.879Z,99367.44
2023-04-05T17:20:47.231Z,99369.29
2023-04-05T17:25:25.154Z,99373.91
2023-04-05T17:27:54.294Z,99374.77
2023-04-05T17:30:23.104Z,99374.36
2023-04-05T17:32:51.441Z,99376.30
2023-04-05T17:35:18.940Z,99375.73
2023-04-05T17:37:47.000Z,99375.23
2023-04-05T17:40:14.598Z,99376.18
2023-04-05T17:42:42.131Z,99374.04
2023-04-05T17:45:09.486Z,99376.85
2023-04-05T17:47:36.789Z,99376.81
2023-04-05T17:50:04.021Z,99374.08
2023-04-05T17:52:31.458Z,99379.48
2023-04-05T17:54:58.071Z,99380.48
2023-04-05T17:57:25.490Z,99380.67
2023-04-05T17:59:52.432Z,99378.46
2023-04-05T18:02:19.738Z,99381.90
2023-04-05T18:04:46.873Z,99381.20
2023-04-05T18:07:13.769Z,99376.59
2023-04-05T18:09:42.483Z,99378.11
2023-04-05T18:12:10.071Z,99378.33
2023-04-05T18:14:37.267Z,99377.10
2023-04-05T18:17:06.647Z,99378.19
2023-04-05T18:19:33.765Z,99373.16
2023-04-05T18:22:00.470Z,99372.42
2023-04-05T18:24:27.296Z,99369.35
2023-04-05T18:26:54.695Z,99366.69
2023-04-05T18:29:28.761Z,99366.46
2023-04-05T18:31:56.181Z,99366.80
2023-04-05T18:34:23.451Z,99362.98
2023-04-05T18:36:53.592Z,99363.31
2023-04-05T18:39:21.145Z,99365.67
2023-04-05T18:41:47.875Z,99363.29
2023-04-05T18:44:15.789Z,99362.45
2023-04-05T18:46:43.781Z,99355.23
2023-04-05T18:49:11.010Z,99354.33
2023-04-05T18:51:37.990Z,99353.50
2023-04-05T18:54:08.963Z,99346.22
2023-04-05T18:56:36.193Z,99343.61
2023-04-05T18:59:02.909Z,99344.71
2023-04-05T19:01:33.148Z,99342.15
2023-04-05T19:04:00.046Z,99344.55
2023-04-05T19:06:27.580Z,99344.02
2023-04-05T19:08:55.714Z,99342.66
2023-04-05T19:11:22.667Z,99342.16
2023-04-05T19:13:50.154Z,99334.70
2023-04-05T19:16:18.099Z,99336.41
2023-04-05T19:18:45.233Z,99328.89
2023-04-05T19:21:17.080Z,99331.33
2023-04-05T19:23:44.601Z,99330.51
2023-04-05T19:26:11.626Z,99332.36
2023-04-05T19:28:39.087Z,99332.96
2023-04-05T19:31:06.608Z,99325.73
2023-04-05T19:33:34.451Z,99327.57
2023-04-05T19:36:01.561Z,99328.09
2023-04-05T19:38:29.805Z,99321.35
2023-04-05T19:40:57.292Z,99317.36
2023-04-05T19:43:25.684Z,99316.60
2023-04-05T19:45:55.871Z,99309.20
2023-04-05T19:48:43.778Z,99308.64
2023-04-05T19:51:13.457Z,99301.69
2023-04-05T19:53:49.679Z,99302.27
2023-04-05T19:56:36.683Z,99296.29
2023-04-05T19:59:08.355Z,99292.90
2023-04-05T20:01:39.537Z,99285.77
2023-04-05T20:04:11.830Z,99287.66
2023-04-05T20:06:41.897Z,99283.42
2023-04-05T20:09:10.950Z,99285.15
2023-04-05T20:11:38.010Z,99277.52
2023-04-05T20:14:05.898Z,99277.31
2023-04-05T20:16:34.973Z,99275.55
2023-04-05T20:19:03.946Z,99276.52
2023-04-05T20:21:31.749Z,99271.36
2023-04-05T20:24:01.933Z,99271.36
2023-04-05T20:26:30.404Z,99273.66
2023-04-05T20:29:14.114Z,99272.29
2023-04-05T20:31:41.432Z,99267.95
2023-04-05T20:34:08.888Z,99259.19
2023-04-05T20:36:38.102Z,99254.00
2023-04-05T20:39:08.095Z,99247.75
2023-04-05T20:41:35.822Z,99248.04
2023-04-05T20:44:05.609Z,99246.40
2023-04-05T20:46:33.535Z,99240.67
2023-04-05T20:49:00.711Z,99237.73
2023-04-05T20:51:33.507Z,99237.03
2023-04-05T20:54:01.591Z,99234.17
2023-04-05T20:56:28.734Z,99227.73
2023-04-05T20:58:56.131Z,99223.45
2023-04-05T21:01:23.081Z,99216.56
2023-04-05T21:03:53.043Z,99219.64
2023-04-05T21:06:20.022Z,99215.40
2023-04-05T21:08:46.649Z,99210.77
2023-04-05T21:11:15.576Z,99208.73
2023-04-05T21:13:42.885Z,99206.27
2023-04-05T21:16:09.803Z,99205.38
2023-04-05T21:18:41.470Z,99204.65
2023-04-05T21:21:08.235Z,99201.60
2023-04-05T21:23:35.124Z,99202.09
2023-04-05T21:26:03.642Z,99202.09
2023-04-05T21:28:30.916Z,99200.24
2023-04-05T21:30:58.329Z,99198.45
2023-04-05T21:33:25.313Z,99197.03
2023-04-05T21:35:53.133Z,99193.01
2023-04-05T21:38:20.560Z,99191.23
2023-04-05T21:40:49.671Z,99195.35
2023-04-05T21:43:16.396Z,99197.32
2023-04-05T21:45:43.174Z,99196.29
2023-04-05T21:48:10.101Z,99197.41
2023-04-05T21:50:37.198Z,99194.16
2023-04-05T21:53:04.826Z,99198.80
2023-04-05T21:55:34.772Z,99197.27
2023-04-05T21:58:02.071Z,99194.02
2023-04-05T22:00:29.742Z,99194.14
2023-04-05T22:02:58.298Z,99187.59
2023-04-05T22:05:37.351Z,99187.73
2023-04-05T22:08:10.583Z,99184.52
2023-04-05T22:10:38.135Z,99184.16
2023-04-05T22:13:05.436Z,99178.88
2023-04-05T22:15:34.874Z,99179.86
2023-04-05T22:18:02.268Z,99177.08
2023-04-05T22:20:29.057Z,99174.33
2023-04-05T22:22:56.066Z,99168.70
2023-04-05T22:25:29.662Z,99171.48
2023-04-05T22:28:03.211Z,99168.61
2023-04-05T22:30:43.730Z,99166.73
2023-04-05T22:33:12.866Z,99164.62
2023-04-05T22:35:41.504Z,99160.64
2023-04-05T22:38:13.241Z,99157.98
2023-04-05T22:40:40.942Z,99155.13
2023-04-05T22:43:11.444Z,99161.15
2023-04-05T22:45:38.905Z,99154.30
2023-04-05T22:48:05.906Z,99147.98
2023-04-05T22:50:34.665Z,99146.20
2023-04-05T22:53:01.366Z,99143.98
2023-04-05T22:55:31.685Z,99143.23
2023-04-05T22:57:58.843Z,99143.91
2023-04-05T23:00:25.679Z,99141.24
2023-04-05T23:02:52.958Z,99140.45
2023-04-05T23:05:20.857Z,99139.36
2023-04-05T23:07:47.705Z,99138.38
2023-04-05T23:10:15.088Z,99143.46
2023-04-05T23:12:46.900Z,99140.02
2023-04-05T23:15:14.783Z,99138.52
2023-04-05T23:17:41.891Z,99136.61
2023-04-05T23:20:10.317Z,99135.13
2023-04-05T23:22:37.266Z,99130.49
2023-04-05T23:25:05.449Z,99137.08
2023-04-05T23:27:32.627Z,99134.42
2023-04-05T23:29:59.286Z,99132.68
2023-04-05T23:32:26.250Z,99133.73
2023-04-05T23:34:52.903Z,99131.32
2023-04-05T23:37:19.842Z,99132.71
2023-04-05T23:39:47.126Z,99129.04
2023-04-05T23:42:16.855Z,99129.14
2023-04-05T23:44:44.389Z,99126.52
2023-04-05T23:47:11.062Z,99126.06
2023-04-05T23:49:38.235Z,99126.52
2023-04-05T23:52:05.315Z,99125.50
2023-04-05T23:54:38.374Z,99129.41
2023-04-05T23:57:05.183Z,99121.52
2023-04-05T23:59:32.066Z,99121.03
